WetterOnline ( https://www.wetteronline.de )

Wetter aktuell List

Aktuelles Wetter: List/Sylt (29m)

6-stündlich | Neueste Meldungen
Ortszeit Temperatur Wetter
Fr, 01.07. 20:00 17.2° C bedeckt
Fr, 01.07. 14:00 16.6° C leichter Regen
Fr, 01.07. 8:00 16.8° C bedeckt
Fr, 01.07. 2:00 18.5° C wolkig
Do, 30.06. 20:00 22.8° C leicht bewölkt
Do, 30.06. 14:00 24.6° C wolkenlos
Do, 30.06. 8:00 18.8° C wolkenlos
Do, 30.06. 2:00 18.4° C leicht bewölkt
Ortszeit Temperatur Wetter
Sa, 02.07. 0:40 15.7° C fast wolkenlos
Sa, 02.07. 0:30 15.9° C leicht bewölkt
Sa, 02.07. 0:20 15.9° C leicht bewölkt
Sa, 02.07. 0:10 15.9° C leicht bewölkt
Sa, 02.07. 0:00 15.8° C wolkig
Fr, 01.07. 23:50 15.8° C wolkig
Fr, 01.07. 23:30 16.0° C wolkig
Fr, 01.07. 23:00 15.7° C wolkig
Fr, 01.07. 22:30 15.7° C wolkig
Fr, 01.07. 22:00 15.7° C wolkig
Ortszeit Relative Feuchte Sichtweite
Fr, 01.07. 20:00 71% 45 km
Fr, 01.07. 14:00 84% 25 km
Fr, 01.07. 8:00 95% 22 km
Fr, 01.07. 2:00 90% 29 km
Do, 30.06. 20:00 61% 55 km
Do, 30.06. 14:00 59% 45 km
Do, 30.06. 8:00 85% 40 km
Do, 30.06. 2:00 79% 55 km
Ortszeit Relative Feuchte Sichtweite
Sa, 02.07. 0:40 77% -
Sa, 02.07. 0:30 76% 50 km
Sa, 02.07. 0:20 76% -
Sa, 02.07. 0:10 72% -
Sa, 02.07. 0:00 76% 45 km
Fr, 01.07. 23:50 76% -
Fr, 01.07. 23:30 74% 45 km
Fr, 01.07. 23:00 76% 40 km
Fr, 01.07. 22:30 77% 40 km
Fr, 01.07. 22:00 76% 50 km
Ortszeit Niederschlagsmenge Niederschlagsart
Fr, 01.07. 20:00 0.1 l/m2 in 12 Std. Regen
Fr, 01.07. 14:00 0.1 l/m2 in 6 Std. Regen
Fr, 01.07. 8:00 1 l/m2 in 12 Std. Regen
Fr, 01.07. 2:00 0.0 l/m2 in 6 Std. -
Do, 30.06. 20:00 0.0 l/m2 in 12 Std. -
Do, 30.06. 14:00 0.0 l/m2 in 6 Std. -
Do, 30.06. 8:00 0.0 l/m2 in 12 Std. -
Do, 30.06. 2:00 0.0 l/m2 in 6 Std. -
Ortszeit Niederschlagsmenge Niederschlagsart
Sa, 02.07. 0:40 keine Meldung -
Sa, 02.07. 0:30 0.0 l/m2 in 1 Std. -
Sa, 02.07. 0:20 keine Meldung -
Sa, 02.07. 0:10 keine Meldung -
Sa, 02.07. 0:00 0.0 l/m2 in 1 Std. -
Fr, 01.07. 23:50 keine Meldung -
Fr, 01.07. 23:30 0.0 l/m2 in 1 Std. -
Fr, 01.07. 23:00 0.0 l/m2 in 1 Std. -
Fr, 01.07. 22:30 0.0 l/m2 in 1 Std. -
Fr, 01.07. 22:00 0.0 l/m2 in 1 Std. -
Ortszeit Stärke Spitze Richtung
km/h Bft. km/h Grad Sektor
Fr, 01.07. 20:00 24 4 41 250° W
Fr, 01.07. 14:00 28 4 50 250° W
Fr, 01.07. 8:00 32 5 43 250° W
Fr, 01.07. 2:00 25 4 36 90° O
Do, 30.06. 20:00 18 3 25 100° O
Do, 30.06. 14:00 19 3 33 110° O
Do, 30.06. 8:00 25 4 36 100° O
Do, 30.06. 2:00 26 4 43 120° SO
Ortszeit Stärke Spitze Richtung
km/h Bft. km/h Grad Sektor
Sa, 02.07. 0:40 28 4 - 250° W
Sa, 02.07. 0:30 28 4 39 250° W
Sa, 02.07. 0:20 28 4 - 250° W
Sa, 02.07. 0:10 28 4 - 250° W
Sa, 02.07. 0:00 26 4 44 250° W
Fr, 01.07. 23:50 26 4 - 250° W
Fr, 01.07. 23:30 28 4 44 250° W
Fr, 01.07. 23:00 25 4 40 240° SW
Fr, 01.07. 22:30 25 4 40 250° W
Fr, 01.07. 22:00 22 4 32 240° SW
Ortszeit Untergrenze Bedeckung Gattung
total tief tief mittel hoch
Fr, 01.07. 20:00 4500 m 8/8 8/8 - - -
Fr, 01.07. 14:00 510 m 7/8 5/8 - - -
Fr, 01.07. 8:00 180 m 8/8 8/8 - - -
Fr, 01.07. 2:00 3600 m 8/8 1/8 - - -
Do, 30.06. 20:00 9000 m 3/8 0/8 - - -
Do, 30.06. 14:00 - 0/8 0/8 - - -
Do, 30.06. 8:00 - 0/8 0/8 - - -
Do, 30.06. 2:00 3300 m 3/8 3/8 - - -
Ortszeit Bedeckungsgrad in Achtel und Wolkenuntergrenze
Sa, 02.07. 0:40 1
Sa, 02.07. 0:30 1(660m)
Sa, 02.07. 0:20 1(660m) 2(1110m)
Sa, 02.07. 0:10 4
Sa, 02.07. 0:00 4(690m) 4(1140m) 6(6900m)
Fr, 01.07. 23:50 4(690m) 4(1140m) 6(6900m)
Fr, 01.07. 23:30 2(690m) 8(7500m) 8(8100m)
Fr, 01.07. 23:00 2(840m) 5(6600m) 7(7500m)
Fr, 01.07. 22:30 2(750m) 8(6000m) 8(6600m)
Fr, 01.07. 22:00 2(720m) 7(6600m)
Ortszeit Luftdruck NN (hPa) Tendenz (hPa in 3 Std.)
Fr, 01.07. 20:00 1017 + 0,9
Fr, 01.07. 14:00 1015 + 1,5
Fr, 01.07. 8:00 1011 + 1,3
Fr, 01.07. 2:00 1010 - 1,0
Do, 30.06. 20:00 1012 - 1,2
Do, 30.06. 14:00 1014 - 0,8
Do, 30.06. 8:00 1014 - 0,7
Do, 30.06. 2:00 1015 - 0,2
Ortszeit Luftdruck NN (hPa) Tendenz (hPa in 3 Std.)
Sa, 02.07. 0:40 1019 keine Meldung
Sa, 02.07. 0:30 1019 + 1,6
Sa, 02.07. 0:20 1019 keine Meldung
Sa, 02.07. 0:10 1019 keine Meldung
Sa, 02.07. 0:00 1019 + 1,7
Fr, 01.07. 23:50 1019 keine Meldung
Fr, 01.07. 23:30 1018 + 1,5
Fr, 01.07. 23:00 1018 + 1,2
Fr, 01.07. 22:30 1018 + 0,8
Fr, 01.07. 22:00 1017 + 0,6
Ortszeit Schneehöhe (cm)
Fr, 01.07. 20:00 0
Fr, 01.07. 14:00 0
Fr, 01.07. 8:00 0
Fr, 01.07. 2:00 0
Do, 30.06. 20:00 0
Do, 30.06. 14:00 0
Do, 30.06. 8:00 0
Do, 30.06. 2:00 0
Ortszeit Schneehöhe (cm)
Sa, 02.07. 0:40 0
Sa, 02.07. 0:30 0
Sa, 02.07. 0:20 0
Sa, 02.07. 0:10 0
Sa, 02.07. 0:00 0
Fr, 01.07. 23:50 0
Fr, 01.07. 23:30 0
Fr, 01.07. 23:00 0
Fr, 01.07. 22:30 0
Fr, 01.07. 22:00 0
Link zu dieser Seite / Seite empfehlen

Das Wetter in ...